Аэропорт: Габала. Габала

ICAO: UBBQ

METAR:
2019-09-21 16:00:00
UBBQ 211600Z 23007KT 9999 FEW060CB OVC080 22/08 Q1009 R16/CLRD// NOSIG RMK MT OBSC
METAR:
Информация по данной станции не доступна